createdAt,value
2023-02-08T00:00:59.604Z,102197.03
2023-02-08T00:03:29.111Z,102197.66
2023-02-08T00:05:56.643Z,102205.56
2023-02-08T00:08:24.036Z,102199.69
2023-02-08T00:10:51.761Z,102210.16
2023-02-08T00:13:19.397Z,102212.19
2023-02-08T00:15:47.243Z,102214.38
2023-02-08T00:18:15.120Z,102216.66
2023-02-08T00:20:43.400Z,102211.97
2023-02-08T00:23:11.475Z,102209.69
2023-02-08T00:25:39.880Z,102220.66
2023-02-08T00:28:09.481Z,102212.44
2023-02-08T00:30:37.170Z,102215.47
2023-02-08T00:33:05.110Z,102212.66
2023-02-08T00:35:32.600Z,102216.34
2023-02-08T00:38:00.111Z,102218.28
2023-02-08T00:40:28.263Z,102217.56
2023-02-08T00:42:57.770Z,102218.00
2023-02-08T00:45:25.256Z,102213.66
2023-02-08T00:47:53.049Z,102221.28
2023-02-08T00:50:21.393Z,102215.84
2023-02-08T00:52:48.813Z,102224.56
2023-02-08T00:55:16.605Z,102227.75
2023-02-08T00:57:44.036Z,102219.44
2023-02-08T01:00:12.058Z,102221.16
2023-02-08T01:02:39.771Z,102223.84
2023-02-08T01:05:07.425Z,102220.03
2023-02-08T01:07:37.493Z,102213.44
2023-02-08T01:10:06.419Z,102221.88
2023-02-08T01:12:35.243Z,102216.53
2023-02-08T01:15:02.710Z,102211.69
2023-02-08T01:17:31.180Z,102216.41
2023-02-08T01:19:58.576Z,102205.22
2023-02-08T01:22:26.034Z,102216.25
2023-02-08T01:24:53.718Z,102207.66
2023-02-08T01:27:21.099Z,102205.31
2023-02-08T01:29:48.442Z,102207.44
2023-02-08T01:32:16.122Z,102204.44
2023-02-08T01:34:44.282Z,102204.94
2023-02-08T01:37:11.914Z,102214.59
2023-02-08T01:39:39.607Z,102217.69
2023-02-08T01:42:07.038Z,102215.69
2023-02-08T01:45:11.906Z,102215.03
2023-02-08T01:47:39.692Z,102222.06
2023-02-08T01:50:07.318Z,102214.94
2023-02-08T01:52:34.854Z,102209.63
2023-02-08T01:55:10.163Z,102214.47
2023-02-08T01:57:37.699Z,102215.06
2023-02-08T02:00:15.232Z,102217.09
2023-02-08T02:02:44.377Z,102207.75
2023-02-08T02:05:12.427Z,102210.56
2023-02-08T02:07:39.999Z,102206.03
2023-02-08T02:10:25.714Z,102211.50
2023-02-08T02:12:55.928Z,102210.69
2023-02-08T02:15:23.690Z,102206.22
2023-02-08T02:17:51.422Z,102209.03
2023-02-08T02:20:22.873Z,102206.03
2023-02-08T02:23:16.858Z,102208.03
2023-02-08T02:26:11.036Z,102212.25
2023-02-08T02:28:47.619Z,102207.28
2023-02-08T02:31:15.312Z,102201.34
2023-02-08T02:33:48.727Z,102197.00
2023-02-08T02:37:02.942Z,102197.78
2023-02-08T02:39:34.252Z,102198.22
2023-02-08T02:42:29.445Z,102197.91
2023-02-08T02:45:02.763Z,102202.91
2023-02-08T02:47:38.994Z,102199.56
2023-02-08T02:50:32.246Z,102202.47
2023-02-08T02:53:26.787Z,102206.59
2023-02-08T02:56:02.007Z,102203.47
2023-02-08T02:58:31.294Z,102215.06
2023-02-08T03:00:59.416Z,102222.66
2023-02-08T03:03:28.789Z,102214.62
2023-02-08T03:05:59.979Z,102217.84
2023-02-08T03:08:33.560Z,102227.97
2023-02-08T03:11:11.056Z,102231.13
2023-02-08T03:14:01.048Z,102229.19
2023-02-08T03:16:38.459Z,102227.47
2023-02-08T03:19:24.501Z,102229.94
2023-02-08T03:21:59.286Z,102240.53
2023-02-08T03:24:26.665Z,102229.66
2023-02-08T03:27:03.822Z,102236.59
2023-02-08T03:30:08.454Z,102244.66
2023-02-08T03:32:40.455Z,102247.56
2023-02-08T03:35:11.781Z,102249.66
2023-02-08T03:37:47.755Z,102241.75
2023-02-08T03:40:22.862Z,102240.41
2023-02-08T03:42:53.085Z,102244.41
2023-02-08T03:45:24.134Z,102240.72
2023-02-08T03:47:53.457Z,102247.50
2023-02-08T03:50:21.781Z,102251.97
2023-02-08T03:52:50.796Z,102254.41
2023-02-08T03:55:22.234Z,102259.56
2023-02-08T03:58:05.278Z,102263.84
2023-02-08T04:00:36.654Z,102257.56
2023-02-08T04:03:12.338Z,102253.78
2023-02-08T04:05:40.085Z,102253.97
2023-02-08T04:08:07.936Z,102257.91
2023-02-08T04:10:35.291Z,102254.47
2023-02-08T04:13:02.727Z,102249.00
2023-02-08T04:15:31.081Z,102253.44
2023-02-08T04:17:58.564Z,102248.66
2023-02-08T04:20:25.976Z,102255.66
2023-02-08T04:22:53.675Z,102250.28
2023-02-08T04:25:21.247Z,102251.41
2023-02-08T04:27:48.696Z,102262.47
2023-02-08T04:30:16.497Z,102257.53
2023-02-08T04:32:44.196Z,102256.53
2023-02-08T04:35:11.557Z,102253.13
2023-02-08T04:37:39.226Z,102245.19
2023-02-08T04:40:06.887Z,102244.97
2023-02-08T04:42:35.036Z,102246.41
2023-02-08T04:45:02.801Z,102234.13
2023-02-08T04:47:30.236Z,102243.97
2023-02-08T04:49:57.641Z,102243.66
2023-02-08T04:52:25.302Z,102254.50
2023-02-08T04:54:52.658Z,102255.09
2023-02-08T04:57:20.090Z,102254.00
2023-02-08T04:59:47.931Z,102250.69
2023-02-08T05:02:15.343Z,102250.91
2023-02-08T05:04:42.715Z,102248.19
2023-02-08T05:07:10.360Z,102246.66
2023-02-08T05:09:37.748Z,102245.03
2023-02-08T05:12:05.316Z,102250.22
2023-02-08T05:14:33.000Z,102251.97
2023-02-08T05:17:00.420Z,102262.72
2023-02-08T05:19:27.904Z,102260.53
2023-02-08T05:21:55.584Z,102261.81
2023-02-08T05:24:23.039Z,102275.94
2023-02-08T05:26:50.575Z,102276.34
2023-02-08T05:29:18.234Z,102275.94
2023-02-08T05:31:45.717Z,102280.47
2023-02-08T05:34:13.158Z,102280.16
2023-02-08T05:36:40.801Z,102269.75
2023-02-08T05:39:08.513Z,102276.06
2023-02-08T05:41:36.138Z,102276.06
2023-02-08T05:44:03.865Z,102271.91
2023-02-08T05:46:31.353Z,102273.72
2023-02-08T05:48:58.833Z,102269.25
2023-02-08T05:51:26.664Z,102283.56
2023-02-08T05:53:54.072Z,102277.56
2023-02-08T05:56:21.447Z,102283.16
2023-02-08T05:58:49.118Z,102269.16
2023-02-08T06:01:16.569Z,102277.69
2023-02-08T06:03:44.236Z,102267.63
2023-02-08T06:06:11.855Z,102268.81
2023-02-08T06:08:40.206Z,102278.69
2023-02-08T06:11:08.020Z,102297.69
2023-02-08T06:13:35.457Z,102292.69
2023-02-08T06:16:02.874Z,102307.00
2023-02-08T06:18:30.529Z,102305.78
2023-02-08T06:20:58.063Z,102299.66
2023-02-08T06:23:25.494Z,102309.00
2023-02-08T06:25:53.545Z,102299.97
2023-02-08T06:28:20.979Z,102303.25
2023-02-08T06:30:52.048Z,102311.44
2023-02-08T06:33:19.769Z,102308.97
2023-02-08T06:35:48.137Z,102312.44
2023-02-08T06:38:15.593Z,102307.72
2023-02-08T06:40:43.533Z,102311.06
2023-02-08T06:43:11.295Z,102302.56
2023-02-08T06:45:38.700Z,102316.16
2023-02-08T06:48:06.442Z,102316.44
2023-02-08T06:50:33.995Z,102318.41
2023-02-08T06:53:01.435Z,102317.06
2023-02-08T06:55:29.131Z,102317.69
2023-02-08T06:57:56.866Z,102316.19
2023-02-08T07:00:24.327Z,102327.47
2023-02-08T07:02:52.646Z,102326.13
2023-02-08T07:05:20.023Z,102326.66
2023-02-08T07:07:48.750Z,102324.56
2023-02-08T07:10:16.925Z,102337.06
2023-02-08T07:12:44.345Z,102329.34
2023-02-08T07:15:13.322Z,102333.44
2023-02-08T07:17:41.126Z,102339.69
2023-02-08T07:20:09.618Z,102332.31
2023-02-08T07:22:37.600Z,102342.72
2023-02-08T07:25:07.212Z,102343.31
2023-02-08T07:27:35.629Z,102345.50
2023-02-08T07:30:03.431Z,102349.56
2023-02-08T07:32:33.689Z,102345.31
2023-02-08T07:35:02.060Z,102355.94
2023-02-08T07:37:29.445Z,102354.81
2023-02-08T07:39:57.152Z,102351.97
2023-02-08T07:42:24.513Z,102360.38
2023-02-08T07:44:52.662Z,102359.53
2023-02-08T07:47:20.458Z,102358.63
2023-02-08T07:49:47.878Z,102367.72
2023-02-08T07:52:15.408Z,102368.53
2023-02-08T07:54:43.073Z,102366.53
2023-02-08T07:57:10.468Z,102366.75
2023-02-08T07:59:37.865Z,102366.34
2023-02-08T08:02:05.573Z,102370.69
2023-02-08T08:04:33.322Z,102371.72
2023-02-08T08:07:00.736Z,102367.03
2023-02-08T08:09:28.219Z,102380.41
2023-02-08T08:11:55.925Z,102375.97
2023-02-08T08:14:23.314Z,102378.44
2023-02-08T08:16:50.674Z,102385.47
2023-02-08T08:19:18.381Z,102382.78
2023-02-08T08:21:45.837Z,102380.50
2023-02-08T08:24:13.182Z,102385.63
2023-02-08T08:26:40.947Z,102389.63
2023-02-08T08:29:08.378Z,102386.56
2023-02-08T08:31:36.843Z,102391.91
2023-02-08T08:34:04.567Z,102396.28
2023-02-08T08:36:32.203Z,102386.97
2023-02-08T08:38:59.570Z,102392.31
2023-02-08T08:41:28.276Z,102393.59
2023-02-08T08:43:55.943Z,102397.47
2023-02-08T08:46:23.421Z,102393.88
2023-02-08T08:48:52.063Z,102401.41
2023-02-08T08:51:19.794Z,102395.47
2023-02-08T08:53:47.218Z,102393.25
2023-02-08T08:56:14.877Z,102398.00
2023-02-08T08:58:43.389Z,102404.84
2023-02-08T09:01:10.880Z,102398.06
2023-02-08T09:03:38.611Z,102401.16
2023-02-08T09:06:06.250Z,102404.50
2023-02-08T09:08:33.703Z,102412.25
2023-02-08T09:11:08.751Z,102416.06
2023-02-08T09:13:36.391Z,102408.66
2023-02-08T09:16:17.635Z,102410.03
2023-02-08T09:18:45.661Z,102427.25
2023-02-08T09:21:15.961Z,102434.19
2023-02-08T09:23:43.722Z,102422.81
2023-02-08T09:26:12.948Z,102432.72
2023-02-08T09:28:40.698Z,102435.34
2023-02-08T09:31:31.879Z,102430.44
2023-02-08T09:34:00.895Z,102430.16
2023-02-08T09:36:40.648Z,102433.28
2023-02-08T09:39:14.933Z,102434.41
2023-02-08T09:42:20.847Z,102431.47
2023-02-08T09:45:10.054Z,102438.78
2023-02-08T09:48:01.162Z,102436.28
2023-02-08T09:50:42.728Z,102432.56
2023-02-08T09:53:24.778Z,102438.34
2023-02-08T09:56:07.514Z,102435.88
2023-02-08T09:58:41.863Z,102436.56
2023-02-08T10:01:19.339Z,102443.00
2023-02-08T10:03:47.417Z,102438.09
2023-02-08T10:06:17.083Z,102444.81
2023-02-08T10:08:45.398Z,102438.25
2023-02-08T10:11:29.205Z,102443.56
2023-02-08T10:14:23.186Z,102438.59
2023-02-08T10:16:53.813Z,102442.56
2023-02-08T10:19:42.241Z,102437.47
2023-02-08T10:22:21.707Z,102437.25
2023-02-08T10:24:57.926Z,102431.09
2023-02-08T10:28:02.754Z,102434.78
2023-02-08T10:30:42.250Z,102438.69
2023-02-08T10:33:21.727Z,102439.81
2023-02-08T10:35:50.776Z,102431.28
2023-02-08T10:38:21.125Z,102435.00
2023-02-08T10:40:52.326Z,102433.41
2023-02-08T10:43:19.937Z,102430.13
2023-02-08T10:45:49.728Z,102433.06
2023-02-08T10:48:35.422Z,102431.03
2023-02-08T10:51:03.750Z,102426.84
2023-02-08T10:53:31.346Z,102426.50
2023-02-08T10:55:58.730Z,102426.84
2023-02-08T10:58:26.720Z,102422.28
2023-02-08T11:00:54.334Z,102420.16
2023-02-08T11:03:24.396Z,102416.25
2023-02-08T11:05:52.881Z,102415.59
2023-02-08T11:08:25.109Z,102419.97
2023-02-08T11:11:03.965Z,102419.00
2023-02-08T11:13:41.550Z,102418.81
2023-02-08T11:16:20.644Z,102412.75
2023-02-08T11:18:49.367Z,102418.22
2023-02-08T11:21:33.442Z,102421.47
2023-02-08T11:24:28.975Z,102420.19
2023-02-08T11:26:56.748Z,102426.13
2023-02-08T11:29:29.546Z,102419.72
2023-02-08T11:32:00.784Z,102417.97
2023-02-08T11:34:33.623Z,102413.03
2023-02-08T11:37:04.696Z,102416.47
2023-02-08T11:39:45.998Z,102411.66
2023-02-08T11:42:21.242Z,102406.13
2023-02-08T11:44:49.634Z,102414.28
2023-02-08T11:47:40.714Z,102405.69
2023-02-08T11:50:09.101Z,102396.88
2023-02-08T11:52:39.380Z,102403.63
2023-02-08T11:55:18.954Z,102401.34
2023-02-08T11:58:14.347Z,102399.59
2023-02-08T12:00:41.736Z,102399.87
2023-02-08T12:03:20.409Z,102396.91
2023-02-08T12:05:57.691Z,102394.31
2023-02-08T12:08:46.310Z,102392.06
2023-02-08T12:11:25.242Z,102400.59
2023-02-08T12:14:11.666Z,102386.13
2023-02-08T12:16:45.579Z,102391.09
2023-02-08T12:19:32.230Z,102386.53
2023-02-08T12:22:10.457Z,102389.19
2023-02-08T12:24:49.409Z,102388.72
2023-02-08T12:27:41.749Z,102390.38
2023-02-08T12:30:19.058Z,102391.16
2023-02-08T12:33:01.199Z,102386.91
2023-02-08T12:36:04.090Z,102395.66
2023-02-08T12:39:18.457Z,102388.28
2023-02-08T12:42:02.725Z,102377.28
2023-02-08T12:44:32.992Z,102385.66
2023-02-08T12:47:20.459Z,102383.16
2023-02-08T12:50:08.200Z,102376.53
2023-02-08T12:52:43.836Z,102380.09
2023-02-08T12:55:29.382Z,102383.16
2023-02-08T12:58:30.389Z,102377.12
2023-02-08T13:01:06.653Z,102379.53
2023-02-08T13:03:43.564Z,102374.38
2023-02-08T13:06:16.882Z,102370.28
2023-02-08T13:08:57.683Z,102366.88
2023-02-08T13:11:38.191Z,102373.28
2023-02-08T13:14:13.592Z,102372.84
2023-02-08T13:16:47.258Z,102367.25
2023-02-08T13:19:29.733Z,102369.19
2023-02-08T13:21:58.815Z,102377.03
2023-02-08T13:24:38.727Z,102382.63
2023-02-08T13:27:08.101Z,102381.75
2023-02-08T13:29:36.273Z,102378.38
2023-02-08T13:32:07.009Z,102372.03
2023-02-08T13:34:38.730Z,102383.16
2023-02-08T13:37:24.891Z,102376.75
2023-02-08T13:40:26.213Z,102381.03
2023-02-08T13:43:06.635Z,102376.66
2023-02-08T13:45:42.865Z,102377.28
2023-02-08T13:48:17.006Z,102377.00
2023-02-08T13:50:51.884Z,102379.25
2023-02-08T13:53:39.898Z,102374.81
2023-02-08T13:56:12.694Z,102370.69
2023-02-08T13:58:49.697Z,102369.69
2023-02-08T14:01:28.771Z,102371.31
2023-02-08T14:04:08.743Z,102368.59
2023-02-08T14:06:48.302Z,102371.88
2023-02-08T14:09:51.477Z,102372.28
2023-02-08T14:12:32.594Z,102365.22
2023-02-08T14:15:24.680Z,102366.97
2023-02-08T14:17:56.654Z,102369.16
2023-02-08T14:20:40.440Z,102363.16
2023-02-08T14:23:30.660Z,102364.59
2023-02-08T14:26:03.451Z,102358.72
2023-02-08T14:28:38.746Z,102364.00
2023-02-08T14:31:09.082Z,102364.75
2023-02-08T14:33:39.742Z,102366.63
2023-02-08T14:36:21.995Z,102367.62
2023-02-08T14:39:05.326Z,102369.97
2023-02-08T14:41:51.120Z,102372.97
2023-02-08T14:44:48.846Z,102372.47
2023-02-08T14:47:29.099Z,102363.75
2023-02-08T14:50:16.407Z,102366.09
2023-02-08T14:53:13.528Z,102359.91
2023-02-08T14:55:46.327Z,102356.25
2023-02-08T14:58:20.407Z,102369.44
2023-02-08T15:00:51.179Z,102360.59
2023-02-08T15:03:19.012Z,102357.78
2023-02-08T15:06:23.422Z,102363.09
2023-02-08T15:08:52.650Z,102359.37
2023-02-08T15:11:22.802Z,102366.28
2023-02-08T15:13:51.421Z,102365.16
2023-02-08T15:16:19.386Z,102370.88
2023-02-08T15:18:48.490Z,102375.78
2023-02-08T15:21:21.407Z,102371.84
2023-02-08T15:24:00.386Z,102371.50
2023-02-08T15:26:28.147Z,102372.75
2023-02-08T15:28:56.335Z,102387.72
2023-02-08T15:31:28.835Z,102379.06
2023-02-08T15:33:58.390Z,102376.50
2023-02-08T15:36:31.671Z,102378.19
2023-02-08T15:39:01.868Z,102378.63
2023-02-08T15:41:38.166Z,102380.16
2023-02-08T15:44:24.157Z,102388.06
2023-02-08T15:46:55.022Z,102386.03
2023-02-08T15:49:41.525Z,102385.22
2023-02-08T15:52:15.954Z,102383.53
2023-02-08T15:54:44.418Z,102386.37
2023-02-08T15:57:29.342Z,102385.13
2023-02-08T15:59:57.254Z,102389.59
2023-02-08T16:02:32.787Z,102384.16
2023-02-08T16:05:01.722Z,102389.25
2023-02-08T16:07:37.173Z,102399.03
2023-02-08T16:10:06.810Z,102394.22
2023-02-08T16:12:34.969Z,102400.88
2023-02-08T16:15:02.424Z,102413.53
2023-02-08T16:17:38.432Z,102410.25
2023-02-08T16:20:30.068Z,102417.50
2023-02-08T16:23:02.348Z,102414.56
2023-02-08T16:25:29.631Z,102421.06
2023-02-08T16:27:57.153Z,102413.37
2023-02-08T16:30:25.106Z,102416.25
2023-02-08T16:32:52.680Z,102422.72
2023-02-08T16:35:33.496Z,102417.19
2023-02-08T16:38:02.837Z,102423.88
2023-02-08T16:40:32.871Z,102422.41
2023-02-08T16:43:26.277Z,102432.25
2023-02-08T16:46:17.345Z,102440.06
2023-02-08T16:48:55.824Z,102445.22
2023-02-08T16:51:27.393Z,102433.41
2023-02-08T16:53:57.338Z,102446.59
2023-02-08T16:56:25.497Z,102439.69
2023-02-08T16:58:53.155Z,102441.66
2023-02-08T17:01:22.968Z,102451.28
2023-02-08T17:03:52.994Z,102453.19
2023-02-08T17:06:30.540Z,102454.00
2023-02-08T17:08:58.815Z,102451.69
2023-02-08T17:11:26.682Z,102451.91
2023-02-08T17:13:54.392Z,102453.06
2023-02-08T17:16:24.135Z,102447.72
2023-02-08T17:18:52.426Z,102454.25
2023-02-08T17:21:19.812Z,102451.75
2023-02-08T17:23:47.792Z,102460.09
2023-02-08T17:26:17.435Z,102456.31
2023-02-08T17:28:44.971Z,102452.44
2023-02-08T17:31:13.605Z,102456.97
2023-02-08T17:33:41.392Z,102452.69
2023-02-08T17:36:10.751Z,102463.72
2023-02-08T17:38:39.471Z,102460.97
2023-02-08T17:41:18.396Z,102465.44
2023-02-08T17:43:49.903Z,102463.34
2023-02-08T17:46:20.362Z,102465.81
2023-02-08T17:48:48.514Z,102467.59
2023-02-08T17:51:18.535Z,102463.91
2023-02-08T17:53:46.250Z,102464.09
2023-02-08T17:56:16.181Z,102466.72
2023-02-08T17:58:44.506Z,102474.94
2023-02-08T18:01:18.035Z,102465.06
2023-02-08T18:03:46.990Z,102470.00
2023-02-08T18:06:15.207Z,102462.00
2023-02-08T18:08:43.172Z,102463.56
2023-02-08T18:11:13.039Z,102462.22
2023-02-08T18:13:40.520Z,102472.28
2023-02-08T18:16:16.970Z,102481.22
2023-02-08T18:18:44.934Z,102479.00
2023-02-08T18:21:17.461Z,102469.50
2023-02-08T18:23:46.244Z,102463.25
2023-02-08T18:26:16.449Z,102470.22
2023-02-08T18:28:44.848Z,102468.50
2023-02-08T18:31:15.224Z,102470.53
2023-02-08T18:33:43.726Z,102476.50
2023-02-08T18:36:12.416Z,102476.12
2023-02-08T18:38:41.638Z,102476.38
2023-02-08T18:41:10.341Z,102481.53
2023-02-08T18:43:39.643Z,102482.53
2023-02-08T18:46:09.924Z,102485.00
2023-02-08T18:48:38.841Z,102483.09
2023-02-08T18:51:07.447Z,102488.03
2023-02-08T18:53:37.350Z,102495.88
2023-02-08T18:56:06.636Z,102481.00
2023-02-08T18:58:34.713Z,102483.13
2023-02-08T19:01:11.391Z,102484.56
2023-02-08T19:03:39.062Z,102485.03
2023-02-08T19:06:09.364Z,102484.25
2023-02-08T19:08:37.717Z,102492.31
2023-02-08T19:11:06.022Z,102493.88
2023-02-08T19:13:35.496Z,102494.78
2023-02-08T19:16:02.967Z,102493.97
2023-02-08T19:18:30.452Z,102494.78
2023-02-08T19:21:10.566Z,102496.34
2023-02-08T19:23:38.151Z,102494.09
2023-02-08T19:26:14.640Z,102497.91
2023-02-08T19:28:42.143Z,102493.41
2023-02-08T19:31:15.789Z,102493.66
2023-02-08T19:33:45.544Z,102497.87
2023-02-08T19:36:19.552Z,102498.56
2023-02-08T19:38:48.290Z,102497.34
2023-02-08T19:41:22.428Z,102491.88
2023-02-08T19:43:50.097Z,102491.97
2023-02-08T19:46:22.185Z,102492.75
2023-02-08T19:48:50.842Z,102499.69
2023-02-08T19:51:19.456Z,102500.13
2023-02-08T19:53:47.314Z,102499.44
2023-02-08T19:56:16.670Z,102507.06
2023-02-08T19:58:45.225Z,102503.69
2023-02-08T20:01:20.660Z,102501.25
2023-02-08T20:03:50.045Z,102496.88
2023-02-08T20:06:24.848Z,102493.41
2023-02-08T20:08:53.285Z,102494.13
2023-02-08T20:11:25.796Z,102500.00
2023-02-08T20:13:54.796Z,102507.72
2023-02-08T20:16:22.721Z,102504.91
2023-02-08T20:18:50.534Z,102501.00
2023-02-08T20:21:18.801Z,102510.53
2023-02-08T20:23:47.345Z,102509.62
2023-02-08T20:26:26.533Z,102511.28
2023-02-08T20:28:58.712Z,102499.34
2023-02-08T20:31:31.474Z,102503.91
2023-02-08T20:34:03.376Z,102499.88
2023-02-08T20:36:33.367Z,102503.00
2023-02-08T20:39:01.113Z,102503.31
2023-02-08T20:41:31.149Z,102509.53
2023-02-08T20:43:58.752Z,102503.63
2023-02-08T20:46:30.693Z,102507.75
2023-02-08T20:49:00.039Z,102513.47
2023-02-08T20:51:28.794Z,102511.00
2023-02-08T20:53:57.385Z,102514.50
2023-02-08T20:56:27.967Z,102515.28
2023-02-08T20:58:55.868Z,102509.72
2023-02-08T21:01:27.763Z,102506.12
2023-02-08T21:03:56.360Z,102514.53
2023-02-08T21:06:32.326Z,102522.53
2023-02-08T21:09:03.020Z,102516.34
2023-02-08T21:11:31.703Z,102520.28
2023-02-08T21:14:00.438Z,102516.50
2023-02-08T21:16:28.193Z,102514.84
2023-02-08T21:18:57.234Z,102513.91
2023-02-08T21:21:25.678Z,102513.34
2023-02-08T21:23:53.136Z,102514.97
2023-02-08T21:26:21.229Z,102509.69
2023-02-08T21:28:52.390Z,102507.81
2023-02-08T21:31:22.095Z,102515.28
2023-02-08T21:33:50.948Z,102507.75
2023-02-08T21:36:21.080Z,102500.66
2023-02-08T21:38:48.533Z,102510.12
2023-02-08T21:41:20.424Z,102497.19
2023-02-08T21:43:48.509Z,102494.22
2023-02-08T21:46:17.034Z,102491.66
2023-02-08T21:49:03.293Z,102491.37
2023-02-08T21:51:49.601Z,102494.16
2023-02-08T21:54:31.538Z,102489.75
2023-02-08T21:57:00.465Z,102483.66
2023-02-08T21:59:28.624Z,102490.94
2023-02-08T22:01:56.018Z,102493.34
2023-02-08T22:04:23.675Z,102497.09
2023-02-08T22:06:52.095Z,102496.53
2023-02-08T22:09:20.703Z,102500.59
2023-02-08T22:15:30.584Z,102500.44
2023-02-08T22:18:00.689Z,102503.16
2023-02-08T22:20:29.210Z,102502.59
2023-02-08T22:22:56.714Z,102495.13
2023-02-08T22:25:24.434Z,102506.09
2023-02-08T22:27:51.990Z,102490.75
2023-02-08T22:30:19.893Z,102493.31
2023-02-08T22:32:49.050Z,102501.16
2023-02-08T22:35:17.746Z,102495.00
2023-02-08T22:37:45.218Z,102499.41
2023-02-08T22:40:13.281Z,102500.16
2023-02-08T22:42:41.369Z,102502.25
2023-02-08T22:45:09.006Z,102502.09
2023-02-08T22:47:36.765Z,102495.59
2023-02-08T22:50:05.577Z,102494.31
2023-02-08T22:52:34.525Z,102491.63
2023-02-08T22:55:04.123Z,102487.81
2023-02-08T22:57:32.247Z,102485.88
2023-02-08T22:59:59.700Z,102487.53
2023-02-08T23:02:27.512Z,102487.03
2023-02-08T23:04:54.978Z,102493.19
2023-02-08T23:07:22.359Z,102491.66
2023-02-08T23:09:50.128Z,102487.19
2023-02-08T23:12:17.480Z,102486.16
2023-02-08T23:14:44.874Z,102488.63
2023-02-08T23:17:12.667Z,102483.59
2023-02-08T23:19:40.897Z,102486.59
2023-02-08T23:22:08.586Z,102478.63
2023-02-08T23:24:36.217Z,102480.78
2023-02-08T23:27:03.714Z,102480.41
2023-02-08T23:29:31.138Z,102478.88
2023-02-08T23:31:58.861Z,102475.31
2023-02-08T23:34:26.260Z,102479.12
2023-02-08T23:36:53.659Z,102474.81
2023-02-08T23:39:21.328Z,102473.41
2023-02-08T23:41:48.672Z,102469.31
2023-02-08T23:44:16.068Z,102468.78
2023-02-08T23:46:43.749Z,102464.72
2023-02-08T23:49:11.191Z,102462.16
2023-02-08T23:51:38.574Z,102458.69
2023-02-08T23:54:06.350Z,102465.19
2023-02-08T23:56:33.789Z,102466.09
2023-02-08T23:59:01.193Z,102460.22
